Time;durP1;ratioP1;P1;durP2;ratioP2;P2;SDS_P1;SDS_P2;PMS_P1;PMS_P2;Temp;Humidity;BMP_temperature;BMP_pressure;BME280_temperature;BME280_humidity;BME280_pressure;Samples;Min_cycle;Max_cycle;Signal;HPM_P1;HPM_P2
2021/03/30 00:01:09;;;;;;;36.40;21.98;;;;;;;8.87;71.54;99838.69;5065283;28;20050;-79
2021/03/30 00:03:35;;;;;;;39.83;22.48;;;;;;;8.81;71.63;99831.50;5063603;28;20037;-78
2021/03/30 00:06:01;;;;;;;30.58;18.50;;;;;;;8.77;72.66;99844.81;5069676;28;20074;-78
2021/03/30 00:08:27;;;;;;;35.13;19.60;;;;;;;8.74;72.80;99840.69;5070916;28;20093;-79
2021/03/30 00:10:53;;;;;;;40.13;22.55;;;;;;;8.74;72.16;99831.69;5069908;28;20507;-78
2021/03/30 00:13:18;;;;;;;38.63;22.60;;;;;;;8.71;72.85;99821.22;5068786;28;20047;-79
2021/03/30 00:15:44;;;;;;;31.80;18.48;;;;;;;8.69;72.71;99828.88;5067678;28;20393;-78
2021/03/30 00:18:09;;;;;;;37.88;20.38;;;;;;;8.67;72.62;99831.00;5067388;28;20025;-78
2021/03/30 00:20:35;;;;;;;33.67;20.90;;;;;;;8.66;73.00;99832.91;5057781;28;20055;-79
2021/03/30 00:23:00;;;;;;;32.25;18.95;;;;;;;8.66;73.33;99832.91;5057820;28;20659;-78
2021/03/30 00:25:26;;;;;;;33.15;19.25;;;;;;;8.66;73.57;99832.09;5063753;28;20039;-79
2021/03/30 00:27:52;;;;;;;34.47;19.35;;;;;;;8.68;73.54;99829.94;5067857;28;20229;-79
2021/03/30 00:30:18;;;;;;;33.72;19.35;;;;;;;8.68;73.55;99827.19;5066037;28;20111;-79
2021/03/30 00:32:43;;;;;;;30.42;18.23;;;;;;;8.69;73.40;99828.88;5067588;28;20017;-78
2021/03/30 00:35:09;;;;;;;31.10;18.00;;;;;;;8.69;73.43;99829.69;5068529;28;20350;-78
2021/03/30 00:37:36;;;;;;;30.27;17.63;;;;;;;8.69;73.45;99823.41;5066623;28;20025;-79
2021/03/30 00:40:04;;;;;;;27.23;16.75;;;;;;;8.69;74.31;99826.13;5065063;28;20028;-79
2021/03/30 00:42:30;;;;;;;32.13;18.80;;;;;;;8.69;73.61;99831.59;5058347;28;20031;-79
2021/03/30 00:44:57;;;;;;;32.42;17.48;;;;;;;8.72;73.57;99828.38;5057636;28;20048;-79
2021/03/30 00:47:22;;;;;;;28.75;16.92;;;;;;;8.73;73.76;99825.38;5065309;28;20032;-78
2021/03/30 00:49:50;;;;;;;28.00;17.13;;;;;;;8.76;73.42;99829.53;5067013;28;20472;-79
2021/03/30 00:52:17;;;;;;;30.25;18.35;;;;;;;8.77;73.50;99828.41;5066734;28;20017;-79
2021/03/30 00:54:43;;;;;;;29.73;18.65;;;;;;;8.78;74.11;99824.59;5066159;28;20559;-79
2021/03/30 00:57:09;;;;;;;32.50;18.05;;;;;;;8.80;73.79;99830.66;5065798;28;20028;-79
2021/03/30 00:59:36;;;;;;;29.88;17.08;;;;;;;8.81;73.44;99832.31;5066320;28;20111;-79
2021/03/30 01:02:02;;;;;;;36.13;20.35;;;;;;;8.83;73.33;99830.16;5060870;28;20491;-79
2021/03/30 01:04:27;;;;;;;35.30;20.55;;;;;;;8.89;73.47;99833.81;5059777;28;20049;-78
2021/03/30 01:06:53;;;;;;;36.25;20.63;;;;;;;8.98;73.79;99834.19;5072007;28;20422;-78
2021/03/30 01:09:28;;;;;;;34.83;19.75;;;;;;;9.05;73.18;99835.66;5067318;28;20028;-79
2021/03/30 01:12:18;;;;;;;30.58;17.98;;;;;;;9.13;73.16;99823.47;5066659;28;20016;-79
2021/03/30 01:15:23;;;;;;;40.10;20.65;;;;;;;9.15;73.02;99813.09;5065572;28;20480;-78
2021/03/30 01:18:17;;;;;;;39.97;23.67;;;;;;;9.22;73.25;99827.41;5065667;28;20031;-79
2021/03/30 01:21:35;;;;;;;40.75;24.25;;;;;;;9.33;73.28;99824.81;5065659;28;20028;-79
2021/03/30 01:24:21;;;;;;;45.92;25.58;;;;;;;9.38;73.10;99819.41;5013633;28;20113;-79
2021/03/30 01:27:02;;;;;;;48.78;26.77;;;;;;;9.45;72.60;99825.53;5056138;28;20098;-79
2021/03/30 01:29:42;;;;;;;45.25;25.98;;;;;;;9.45;72.74;99822.78;5064533;28;20028;-79
2021/03/30 01:32:48;;;;;;;41.67;24.45;;;;;;;9.44;72.28;99806.59;5065015;28;20016;-78
2021/03/30 01:35:21;;;;;;;37.83;21.65;;;;;;;9.41;72.51;99807.94;5065141;28;20544;-78
2021/03/30 01:37:48;;;;;;;40.67;23.17;;;;;;;9.38;72.28;99805.72;5065206;28;20436;-79
2021/03/30 01:40:18;;;;;;;43.72;23.95;;;;;;;9.39;71.94;99804.63;5064714;28;20029;-79
2021/03/30 01:42:46;;;;;;;38.67;22.27;;;;;;;9.44;72.04;99807.44;5064609;28;20507;-79
2021/03/30 01:45:15;;;;;;;36.53;21.00;;;;;;;9.47;72.11;99806.09;5058107;28;20017;-79
2021/03/30 01:47:41;;;;;;;35.35;21.17;;;;;;;9.52;72.41;99803.41;5056341;28;20016;-79
2021/03/30 01:50:09;;;;;;;30.02;18.20;;;;;;;9.56;72.16;99801.00;5063101;28;20031;-79
2021/03/30 01:52:35;;;;;;;35.10;19.63;;;;;;;9.56;72.31;99803.75;5070080;28;20491;-79
2021/03/30 01:55:02;;;;;;;30.63;19.05;;;;;;;9.59;72.04;99801.31;5065333;28;20032;-79
2021/03/30 01:57:30;;;;;;;31.85;18.27;;;;;;;9.63;71.72;99796.97;5067304;28;20028;-79
2021/03/30 01:59:58;;;;;;;31.00;19.02;;;;;;;9.68;71.83;99796.19;5065751;28;20935;-80
2021/03/30 02:02:23;;;;;;;33.03;18.48;;;;;;;9.68;71.80;99798.94;5064823;28;20020;-79
2021/03/30 02:04:51;;;;;;;28.98;17.75;;;;;;;9.64;71.53;99795.03;5060543;28;20024;-79
2021/03/30 02:07:17;;;;;;;30.52;17.20;;;;;;;9.62;71.73;99805.44;5060103;28;20028;-79
2021/03/30 02:09:45;;;;;;;34.20;18.90;;;;;;;9.60;72.06;99796.63;5061435;28;20035;-80
2021/03/30 02:12:14;;;;;;;32.05;17.40;;;;;;;9.55;71.70;99788.41;5069151;28;20046;-80
2021/03/30 02:14:40;;;;;;;35.00;18.55;;;;;;;9.55;71.68;99788.41;5077232;28;20500;-79
2021/03/30 02:17:18;;;;;;;34.05;18.67;;;;;;;9.53;71.88;99791.38;5065096;28;20016;-79
2021/03/30 02:19:45;;;;;;;23.88;15.25;;;;;;;9.44;71.67;99801.13;5064874;28;20101;-79
2021/03/30 02:22:25;;;;;;;26.83;15.52;;;;;;;9.35;71.95;99790.63;5067910;28;20503;-78
2021/03/30 02:24:52;;;;;;;30.52;16.80;;;;;;;9.35;72.16;99785.16;5061699;28;20572;-78
2021/03/30 02:27:21;;;;;;;23.75;13.63;;;;;;;9.39;72.02;99785.47;5056368;28;20028;-78
2021/03/30 02:29:49;;;;;;;33.20;16.52;;;;;;;9.38;72.25;99795.56;5055337;28;20044;-78
2021/03/30 02:32:17;;;;;;;27.65;14.40;;;;;;;9.36;71.98;99799.66;5063894;28;20028;-79
2021/03/30 02:34:47;;;;;;;29.23;15.80;;;;;;;9.35;72.02;99792.53;5065733;28;20029;-79
2021/03/30 02:37:13;;;;;;;21.23;13.63;;;;;;;9.33;72.16;99794.69;5065220;28;20035;-79
2021/03/30 02:39:39;;;;;;;33.90;17.00;;;;;;;9.29;72.49;99794.38;5064050;28;20081;-79
2021/03/30 02:42:06;;;;;;;40.45;20.70;;;;;;;9.24;72.60;99797.06;5065611;28;20031;-79
2021/03/30 02:44:32;;;;;;;24.20;14.45;;;;;;;9.20;72.12;99799.47;5063822;28;20031;-79
2021/03/30 02:46:59;;;;;;;26.42;15.82;;;;;;;9.16;72.79;99801.06;5059106;28;20020;-79
2021/03/30 02:49:25;;;;;;;39.20;21.05;;;;;;;9.14;72.45;99795.03;5056915;28;20026;-79
2021/03/30 02:51:53;;;;;;;38.53;20.75;;;;;;;9.13;72.44;99793.38;5057475;28;20044;-79
2021/03/30 02:54:20;;;;;;;20.98;12.77;;;;;;;9.12;73.10;99785.41;5067365;28;20035;-79
2021/03/30 02:56:47;;;;;;;20.88;13.30;;;;;;;9.11;72.78;99783.75;5068830;28;20037;-79
2021/03/30 02:59:14;;;;;;;23.70;13.55;;;;;;;9.08;72.97;99782.34;5071155;28;20169;-79
2021/03/30 03:01:42;;;;;;;23.23;12.43;;;;;;;9.06;73.42;99782.59;5070678;28;20081;-79
2021/03/30 03:04:07;;;;;;;24.33;14.20;;;;;;;9.06;73.11;99781.78;5069239;28;20045;-78
2021/03/30 03:06:33;;;;;;;23.80;13.35;;;;;;;9.07;72.62;99770.56;5067527;28;20027;-79
2021/03/30 03:08:59;;;;;;;23.15;13.82;;;;;;;9.09;73.28;99770.31;5058985;28;20443;-79
2021/03/30 03:11:25;;;;;;;22.13;13.35;;;;;;;9.09;73.06;99775.81;5059480;28;20029;-79
2021/03/30 03:13:52;;;;;;;22.85;12.30;;;;;;;9.04;73.48;99770.25;5065993;28;20027;-79
2021/03/30 03:16:20;;;;;;;26.00;14.50;;;;;;;8.99;73.59;99770.19;5068363;28;20065;-79
2021/03/30 03:18:47;;;;;;;22.77;13.70;;;;;;;8.99;73.55;99767.44;5067808;28;20102;-78
2021/03/30 03:21:13;;;;;;;24.65;14.68;;;;;;;8.97;73.55;99764.13;5080385;28;20028;-78
2021/03/30 03:23:39;;;;;;;25.48;15.52;;;;;;;8.99;73.69;99771.00;5068423;28;20703;-79
2021/03/30 03:26:07;;;;;;;25.58;15.88;;;;;;;8.98;73.20;99766.59;5069961;28;20021;-79
2021/03/30 03:28:37;;;;;;;28.08;16.05;;;;;;;8.98;73.80;99766.59;5064673;28;20024;-81
2021/03/30 03:31:03;;;;;;;29.70;15.48;;;;;;;8.98;73.74;99765.78;5058096;28;20043;-78
2021/03/30 03:33:28;;;;;;;30.88;17.92;;;;;;;8.94;73.72;99770.97;5058745;28;20452;-79
2021/03/30 03:36:07;;;;;;;35.38;19.88;;;;;;;8.92;73.87;99778.59;5067802;28;20032;-78
2021/03/30 03:38:32;;;;;;;36.45;20.63;;;;;;;8.87;73.88;99776.59;5069047;28;20020;-79
2021/03/30 03:40:57;;;;;;;32.28;17.35;;;;;;;8.86;74.39;99776.84;5068917;28;20054;-80
2021/03/30 03:43:23;;;;;;;34.80;17.02;;;;;;;8.83;73.76;99777.34;5068065;28;20034;-78
2021/03/30 03:45:48;;;;;;;26.33;15.90;;;;;;;8.82;74.38;99770.22;5067153;28;20025;-79
2021/03/30 03:48:13;;;;;;;26.85;15.13;;;;;;;8.79;74.25;99777.03;5072865;28;20436;-80
2021/03/30 03:50:40;;;;;;;26.65;15.60;;;;;;;8.77;73.84;99777.28;5057705;28;20020;-79
2021/03/30 03:53:09;;;;;;;27.45;15.25;;;;;;;8.76;74.36;99780.28;5059242;28;20035;-79
2021/03/30 03:55:36;;;;;;;28.98;15.10;;;;;;;8.75;74.19;99776.72;5063646;28;20024;-80
2021/03/30 03:58:06;;;;;;;27.27;15.70;;;;;;;8.73;74.63;99776.13;5067059;28;20427;-80
2021/03/30 04:00:32;;;;;;;;;;;;;;;8.75;73.80;99776.72;5068159;28;20377;-78
2021/03/30 04:03:07;;;;;;;27.70;17.02;;;;;;;8.77;74.46;99782.75;5067599;28;19927;-79
2021/03/30 04:05:41;;;;;;;29.33;16.38;;;;;;;8.85;74.24;99786.16;5080041;28;20057;-79
2021/03/30 04:08:14;;;;;;;26.83;15.20;;;;;;;8.96;74.40;99787.94;5066417;28;20431;-79
2021/03/30 04:10:45;;;;;;;28.00;15.18;;;;;;;8.99;74.06;99783.88;5063036;28;20024;-78
2021/03/30 04:13:12;;;;;;;28.90;16.45;;;;;;;8.99;74.25;99784.69;5058803;28;20079;-79
2021/03/30 04:15:38;;;;;;;25.65;15.20;;;;;;;9.00;73.89;99791.81;5059425;28;20435;-79
2021/03/30 04:18:05;;;;;;;24.65;14.75;;;;;;;9.01;74.65;99793.47;5068099;28;20484;-79
2021/03/30 04:20:31;;;;;;;26.42;15.65;;;;;;;9.04;74.23;99792.97;5080211;28;20016;-79
2021/03/30 04:22:59;;;;;;;24.20;14.68;;;;;;;9.02;73.70;99789.66;5066703;28;20056;-79
2021/03/30 04:25:26;;;;;;;27.23;17.08;;;;;;;9.01;73.88;99795.38;5067402;28;20056;-79
2021/03/30 04:27:51;;;;;;;27.30;15.40;;;;;;;9.04;73.65;99792.16;5066962;28;20083;-79
2021/03/30 04:30:18;;;;;;;27.17;17.02;;;;;;;9.02;74.20;99791.56;5086274;28;20057;-79
2021/03/30 04:32:43;;;;;;;30.15;17.70;;;;;;;8.99;74.24;99794.81;5092781;28;20026;-79
2021/03/30 04:35:10;;;;;;;27.67;16.38;;;;;;;8.95;74.29;99789.03;5093198;28;20443;-79
2021/03/30 04:37:36;;;;;;;28.67;16.17;;;;;;;8.89;74.27;99785.38;5093361;28;20118;-79
2021/03/30 04:40:02;;;;;;;26.70;16.70;;;;;;;8.88;74.71;99793.84;5092223;28;20110;-79
2021/03/30 04:42:28;;;;;;;29.42;17.10;;;;;;;8.86;74.32;99796.81;5093438;28;20434;-79
2021/03/30 04:44:53;;;;;;;28.80;17.65;;;;;;;8.86;74.68;99793.28;5090462;28;20020;-79
2021/03/30 04:47:21;;;;;;;28.65;18.10;;;;;;;8.86;74.44;99785.88;5093022;28;20077;-79
2021/03/30 04:49:46;;;;;;;31.80;18.85;;;;;;;8.86;74.65;99791.34;5093413;28;20020;-79
2021/03/30 04:52:12;;;;;;;35.20;19.58;;;;;;;8.86;75.07;99796.00;5092640;28;20028;-79
2021/03/30 04:54:37;;;;;;;35.97;21.40;;;;;;;8.86;75.20;99796.81;5091478;28;20020;-79
2021/03/30 04:57:03;;;;;;;37.75;20.95;;;;;;;8.85;75.31;99806.09;5093189;28;20076;-79
2021/03/30 04:59:28;;;;;;;47.33;24.33;;;;;;;8.85;74.86;99806.09;5093108;28;20107;-79
2021/03/30 05:01:54;;;;;;;37.72;22.42;;;;;;;8.86;74.85;99810.50;5094224;28;20076;-80
2021/03/30 05:04:19;;;;;;;38.97;23.15;;;;;;;8.89;75.21;99809.19;5093357;28;20085;-80
2021/03/30 05:06:44;;;;;;;35.00;21.73;;;;;;;8.91;75.19;99809.75;5092997;28;20031;-79
2021/03/30 05:09:10;;;;;;;41.22;23.67;;;;;;;8.92;74.93;99801.28;5092750;28;20020;-79
2021/03/30 05:11:35;;;;;;;39.95;23.35;;;;;;;8.96;75.09;99812.56;5092850;28;20024;-80
2021/03/30 05:14:01;;;;;;;45.22;25.13;;;;;;;8.99;75.04;99808.50;5092740;28;20037;-79
2021/03/30 05:16:26;;;;;;;50.08;27.23;;;;;;;9.00;75.15;99816.44;5091867;28;20032;-80
2021/03/30 05:18:52;;;;;;;51.10;28.23;;;;;;;9.03;74.71;99817.84;5092523;28;20020;-79
2021/03/30 05:21:18;;;;;;;41.30;24.45;;;;;;;9.04;74.82;99825.81;5092427;28;20103;-79
2021/03/30 05:23:43;;;;;;;59.97;30.77;;;;;;;9.07;74.86;99827.22;5092688;28;20024;-78
2021/03/30 05:26:09;;;;;;;49.83;28.17;;;;;;;9.09;74.47;99825.06;5092353;28;20020;-79
2021/03/30 05:28:34;;;;;;;52.38;29.48;;;;;;;9.13;74.50;99828.94;5089746;28;20027;-79
2021/03/30 05:30:59;;;;;;;49.50;28.77;;;;;;;9.17;74.75;99824.59;5092418;28;20103;-80
2021/03/30 05:33:25;;;;;;;51.70;29.17;;;;;;;9.21;74.67;99825.75;5092575;28;20093;-80
2021/03/30 05:35:50;;;;;;;62.85;32.80;;;;;;;9.30;74.57;99830.78;5092322;28;20087;-80
2021/03/30 05:38:16;;;;;;;67.07;33.47;;;;;;;9.35;74.53;99828.13;5092261;28;20043;-80
2021/03/30 05:40:41;;;;;;;60.78;31.90;;;;;;;9.43;74.56;99833.16;5092134;28;20024;-80
2021/03/30 05:43:10;;;;;;;57.85;30.83;;;;;;;9.50;74.50;99831.06;5091935;28;20013;-80
2021/03/30 05:45:35;;;;;;;64.22;34.70;;;;;;;9.61;74.40;99828.44;5086737;28;20027;-80
2021/03/30 05:48:01;;;;;;;44.65;25.50;;;;;;;9.71;74.20;99831.28;5092345;28;20020;-80
2021/03/30 05:50:34;;;;;;;41.20;24.52;;;;;;;9.85;74.42;99841.84;5092245;28;20425;-80
2021/03/30 05:53:05;;;;;;;39.95;24.30;;;;;;;9.95;74.03;99834.56;5089748;28;20040;-81
2021/03/30 05:55:33;;;;;;;43.75;24.17;;;;;;;10.06;73.88;99840.97;5091630;28;20016;-81
2021/03/30 05:58:00;;;;;;;41.50;24.55;;;;;;;10.17;73.76;99833.69;5092087;28;20435;-81
2021/03/30 06:00:33;;;;;;;38.40;23.40;;;;;;;10.26;74.03;99836.78;5092028;28;20472;-81
2021/03/30 06:03:02;;;;;;;34.50;22.02;;;;;;;10.36;73.42;99836.03;5089206;28;20396;-80
2021/03/30 06:05:29;;;;;;;35.63;22.67;;;;;;;10.47;73.24;99836.97;5092185;28;20020;-80
2021/03/30 06:07:57;;;;;;;39.53;21.90;;;;;;;10.60;72.61;99841.22;5093230;28;20046;-80
2021/03/30 06:10:26;;;;;;;35.35;21.45;;;;;;;10.67;73.12;99830.81;5093101;28;20484;-80
2021/03/30 06:12:51;;;;;;;37.05;22.02;;;;;;;10.75;73.07;99840.50;5093032;28;20028;-80
2021/03/30 06:15:17;;;;;;;38.45;22.70;;;;;;;10.83;72.47;99849.06;5092964;28;20028;-80
2021/03/30 06:17:50;;;;;;;41.95;23.63;;;;;;;10.92;72.78;99849.41;5093106;28;20032;-80
2021/03/30 06:20:36;;;;;;;37.47;20.45;;;;;;;11.02;72.44;99838.50;5092866;28;20028;-81
2021/03/30 06:23:04;;;;;;;31.88;18.13;;;;;;;11.10;71.43;99833.59;5092743;28;20032;-80
2021/03/30 06:25:39;;;;;;;38.65;22.08;;;;;;;11.17;71.28;99843.25;5092615;28;20038;-80
2021/03/30 06:28:13;;;;;;;42.00;23.65;;;;;;;11.29;71.55;99845.75;5092695;28;20032;-80
2021/03/30 06:30:53;;;;;;;49.42;25.17;;;;;;;11.39;71.59;99849.66;5092777;28;20038;-80
2021/03/30 06:33:19;;;;;;;87.20;39.42;;;;;;;11.46;71.09;99848.31;5092787;28;20468;-80
2021/03/30 06:35:45;;;;;;;59.10;31.30;;;;;;;11.57;70.54;99860.19;5092630;28;20056;-80
2021/03/30 06:38:10;;;;;;;55.72;26.83;;;;;;;11.70;70.51;99858.03;5091367;28;20055;-80
2021/03/30 06:40:38;;;;;;;38.35;23.13;;;;;;;11.82;69.86;99858.63;5092520;28;20028;-80
2021/03/30 06:46:22;;;;;;;46.45;24.27;;;;;;;12.06;69.67;99858.16;5066092;28;20051;-80
2021/03/30 06:48:48;;;;;;;35.17;20.02;;;;;;;12.15;68.56;99863.97;5092329;28;20030;-80
2021/03/30 06:51:20;;;;;;;45.55;26.30;;;;;;;12.19;68.60;99856.84;5092450;28;20099;-80
2021/03/30 06:53:46;;;;;;;32.58;18.00;;;;;;;12.21;67.58;99866.44;5092536;28;20108;-80
2021/03/30 06:56:11;;;;;;;31.23;20.10;;;;;;;12.26;67.83;99873.88;5092500;28;20060;-79
2021/03/30 06:59:00;;;;;;;42.33;22.08;;;;;;;12.31;67.70;99868.38;5092504;28;20038;-80
2021/03/30 07:01:27;;;;;;;42.67;23.70;;;;;;;12.35;67.45;99872.25;5091132;28;20558;-80
2021/03/30 07:03:56;;;;;;;38.58;21.77;;;;;;;12.41;67.34;99870.34;5092271;28;20086;-79
2021/03/30 07:06:26;;;;;;;40.00;24.67;;;;;;;12.51;67.31;99869.50;5092476;28;20070;-79
2021/03/30 07:08:52;;;;;;;;;;;;;;;12.58;66.44;99877.47;5092785;28;20024;-80
2021/03/30 07:11:17;;;;;;;25.65;13.82;;;;;;;12.62;66.12;99873.09;5092425;28;19919;-79
2021/03/30 07:13:43;;;;;;;24.25;13.45;;;;;;;12.66;65.60;99876.94;5090743;28;20036;-77
2021/03/30 07:16:23;;;;;;;27.35;14.90;;;;;;;12.70;65.21;99875.28;5091630;28;20027;-80
2021/03/30 07:18:54;;;;;;;24.80;12.63;;;;;;;12.78;65.09;99883.00;5092000;28;20525;-79
2021/03/30 07:21:26;;;;;;;22.45;12.43;;;;;;;12.88;63.08;99878.56;5091743;28;20070;-81
2021/03/30 07:23:57;;;;;;;20.00;11.00;;;;;;;12.93;61.68;99875.81;5090555;28;20020;-80
2021/03/30 07:26:52;;;;;;;16.02;9.23;;;;;;;12.98;62.19;99886.81;5092095;28;20028;-79
2021/03/30 07:29:23;;;;;;;33.22;15.20;;;;;;;13.10;61.26;99876.34;5092266;28;20383;-79
2021/03/30 07:32:07;;;;;;;19.83;10.18;;;;;;;13.23;60.26;99874.94;5092155;28;20034;-79
2021/03/30 07:34:39;;;;;;;17.13;9.10;;;;;;;13.36;58.25;99880.97;5092458;28;20403;-80
2021/03/30 07:37:09;;;;;;;16.98;9.55;;;;;;;13.43;58.72;99883.47;5092093;28;20103;-79
2021/03/30 07:39:43;;;;;;;15.98;8.57;;;;;;;13.52;58.92;99890.88;5094122;28;20082;-79
2021/03/30 07:42:10;;;;;;;13.88;9.00;;;;;;;13.62;58.79;99880.91;5095845;28;20032;-80
2021/03/30 07:44:36;;;;;;;17.85;10.70;;;;;;;13.72;58.57;99882.81;5096111;28;20418;-80
2021/03/30 07:47:02;;;;;;;23.23;12.40;;;;;;;13.87;58.74;99871.72;5095834;28;20024;-78
2021/03/30 07:49:29;;;;;;;17.15;10.48;;;;;;;13.97;58.53;99879.94;5095877;28;20502;-78
2021/03/30 07:52:16;;;;;;;18.20;10.18;;;;;;;14.06;57.99;99877.41;5095941;28;20031;-78
2021/03/30 07:55:18;;;;;;;14.93;10.00;;;;;;;14.07;57.86;99875.44;5095993;28;20054;-76
2021/03/30 07:58:03;;;;;;;18.25;9.25;;;;;;;14.06;57.14;99880.16;5095843;28;20224;-76
2021/03/30 08:00:31;;;;;;;16.95;8.50;;;;;;;14.10;57.19;99885.91;5095482;28;20069;-76
2021/03/30 08:03:02;;;;;;;19.20;9.90;;;;;;;14.15;57.80;99883.13;5095415;28;20044;-77
2021/03/30 08:05:28;;;;;;;16.58;8.55;;;;;;;14.24;57.36;99873.16;5095524;28;20085;-76
2021/03/30 08:07:56;;;;;;;16.40;8.75;;;;;;;14.31;56.15;99881.09;5095669;28;20032;-75
2021/03/30 08:10:22;;;;;;;16.25;8.38;;;;;;;14.35;56.56;99881.38;5095376;28;20028;-75
2021/03/30 08:12:48;;;;;;;17.30;9.10;;;;;;;14.36;56.25;99878.31;5095355;28;20024;-76
2021/03/30 08:15:41;;;;;;;16.60;9.73;;;;;;;14.39;55.46;99890.72;5095098;28;20016;-76
2021/03/30 08:18:08;;;;;;;16.38;9.38;;;;;;;14.46;55.66;99894.00;5095441;28;20115;-75
2021/03/30 08:20:50;;;;;;;19.67;9.32;;;;;;;14.54;56.37;99890.59;5095213;28;20508;-76
2021/03/30 08:23:17;;;;;;;17.88;10.00;;;;;;;14.64;55.73;99894.41;5095128;28;20027;-76
2021/03/30 08:25:46;;;;;;;14.80;8.95;;;;;;;14.67;55.80;99891.06;5094969;28;20028;-76
2021/03/30 08:28:49;;;;;;;16.42;9.35;;;;;;;14.69;55.59;99888.88;5093834;28;20107;-75
2021/03/30 08:31:20;;;;;;;14.88;8.95;;;;;;;14.70;55.11;99880.28;5092724;28;20028;-77
2021/03/30 08:33:52;;;;;;;18.55;11.25;;;;;;;14.74;54.77;99894.34;5095092;28;20093;-76
2021/03/30 08:36:22;;;;;;;16.25;9.18;;;;;;;14.81;55.05;99894.84;5094322;28;20032;-75
2021/03/30 08:38:49;;;;;;;17.73;9.35;;;;;;;14.89;55.23;99894.22;5094590;28;20016;-75
2021/03/30 08:41:54;;;;;;;15.95;10.27;;;;;;;14.94;54.28;99895.28;5094275;28;20021;-75
2021/03/30 08:44:50;;;;;;;17.05;9.60;;;;;;;14.95;54.53;99896.94;5093356;28;20040;-75
2021/03/30 08:47:37;;;;;;;24.35;13.88;;;;;;;15.09;55.57;99905.34;5075000;28;20028;-74
2021/03/30 08:50:26;;;;;;;17.10;9.60;;;;;;;15.21;55.23;99891.97;5092575;28;20032;-75
2021/03/30 08:52:55;;;;;;;16.13;10.15;;;;;;;15.34;55.03;99893.22;5092893;28;20035;-76
2021/03/30 08:55:31;;;;;;;19.48;10.00;;;;;;;15.48;54.72;99890.59;5093825;28;20027;-74
2021/03/30 08:57:59;;;;;;;15.07;8.88;;;;;;;15.57;54.17;99886.06;5091225;28;20040;-74
2021/03/30 09:00:25;;;;;;;18.85;10.70;;;;;;;15.61;53.70;99891.84;5093992;28;20527;-74
2021/03/30 09:02:58;;;;;;;28.40;14.15;;;;;;;15.68;53.82;99895.06;5093608;28;20131;-75
2021/03/30 09:05:23;;;;;;;36.17;16.08;;;;;;;15.75;53.42;99897.47;5092216;28;20475;-75
2021/03/30 09:07:49;;;;;;;21.02;11.23;;;;;;;15.85;52.94;99888.22;5093620;28;20026;-75
2021/03/30 09:10:16;;;;;;;19.30;10.32;;;;;;;15.91;53.09;99887.06;5093871;28;20028;-75
2021/03/30 09:12:43;;;;;;;16.60;10.32;;;;;;;15.99;53.28;99902.16;5094104;28;20117;-75
2021/03/30 09:15:10;;;;;;;21.83;12.85;;;;;;;16.05;53.09;99893.53;5094308;28;20024;-76
2021/03/30 09:18:22;;;;;;;29.75;17.45;;;;;;;16.12;53.16;99889.53;5094012;28;20040;-76
2021/03/30 09:20:48;;;;;;;18.45;12.23;;;;;;;16.24;53.59;99891.88;5031390;28;20026;-75
2021/03/30 09:23:15;;;;;;;34.10;20.95;;;;;;;16.32;53.75;99888.41;5085214;28;20043;-74
2021/03/30 09:25:45;;;;;;;30.20;17.52;;;;;;;16.35;53.11;99882.28;5093900;28;20028;-74
2021/03/30 09:28:16;;;;;;;;;;;;;;;16.37;52.83;99893.88;5094295;28;20099;-75
2021/03/30 09:30:43;;;;;;;17.55;10.50;;;;;;;16.33;52.54;99892.84;5092436;28;19912;-75
2021/03/30 09:33:09;;;;;;;17.00;9.50;;;;;;;16.34;52.85;99894.47;5093792;28;20020;-76
2021/03/30 09:35:35;;;;;;;20.60;11.15;;;;;;;16.40;52.57;99893.28;5093563;28;20024;-75
2021/03/30 09:38:03;;;;;;;13.95;8.43;;;;;;;16.44;52.46;99899.06;5093670;28;20058;-76
2021/03/30 09:40:33;;;;;;;12.30;7.97;;;;;;;16.43;52.03;99902.97;5093721;28;20032;-76
2021/03/30 09:42:59;;;;;;;15.23;8.77;;;;;;;16.37;51.15;99889.19;5092951;28;20028;-75
2021/03/30 09:45:26;;;;;;;17.23;10.13;;;;;;;16.36;51.08;99893.06;5092654;28;20059;-75
2021/03/30 09:47:53;;;;;;;15.45;10.27;;;;;;;16.41;51.77;99888.59;5092629;28;20024;-75
2021/03/30 09:50:20;;;;;;;14.85;8.43;;;;;;;16.49;51.22;99897.03;5090261;28;20054;-75
2021/03/30 09:52:47;;;;;;;21.77;13.70;;;;;;;16.56;51.16;99896.63;5090271;28;20098;-75
2021/03/30 09:55:27;;;;;;;16.17;9.05;;;;;;;16.66;50.19;99885.41;5091395;28;20028;-75
2021/03/30 09:58:10;;;;;;;14.98;8.90;;;;;;;16.69;50.61;99884.00;5091656;28;20046;-77
2021/03/30 10:00:41;;;;;;;17.40;9.73;;;;;;;16.76;51.09;99883.59;5091665;28;20035;-76
2021/03/30 10:03:08;;;;;;;35.13;17.13;;;;;;;16.81;51.01;99883.50;5091022;28;20058;-76
2021/03/30 10:05:35;;;;;;;15.50;8.55;;;;;;;16.91;50.14;99883.31;5091480;28;20551;-76
2021/03/30 10:08:01;;;;;;;43.85;29.45;;;;;;;16.92;50.48;99882.19;5091420;28;20061;-75
2021/03/30 10:10:43;;;;;;;14.48;8.45;;;;;;;16.95;50.33;99880.78;5091305;28;20108;-76
2021/03/30 10:13:26;;;;;;;14.77;8.82;;;;;;;17.02;50.81;99883.16;5091097;28;20028;-75
2021/03/30 10:15:53;;;;;;;27.05;13.20;;;;;;;17.07;50.43;99880.31;5090858;28;20024;-76
2021/03/30 10:18:22;;;;;;;63.50;27.45;;;;;;;17.17;50.99;99879.28;5091045;28;20031;-76
2021/03/30 10:20:54;;;;;;;18.40;11.20;;;;;;;17.30;50.84;99878.50;5089604;28;20057;-76
2021/03/30 10:23:25;;;;;;;14.77;8.52;;;;;;;17.35;49.98;99877.56;5090723;28;20039;-78
2021/03/30 10:25:51;;;;;;;15.63;9.20;;;;;;;17.40;49.93;99880.25;5091054;28;20046;-77
2021/03/30 10:28:53;;;;;;;57.63;29.00;;;;;;;17.48;50.09;99868.44;5091269;28;20413;-78
2021/03/30 10:31:26;;;;;;;26.83;13.27;;;;;;;17.53;49.83;99868.34;5090590;28;20036;-78
2021/03/30 10:33:52;;;;;;;14.82;9.32;;;;;;;17.63;49.38;99867.31;5089214;28;20024;-78
2021/03/30 10:36:18;;;;;;;12.43;8.77;;;;;;;17.70;49.79;99862.16;5090637;28;20035;-78
2021/03/30 10:39:05;;;;;;;24.80;12.50;;;;;;;17.89;49.64;99868.72;5090797;28;20040;-78
2021/03/30 10:41:38;;;;;;;16.00;9.23;;;;;;;17.95;49.03;99862.72;5090458;28;20032;-78
2021/03/30 10:44:05;;;;;;;11.95;7.95;;;;;;;18.00;49.37;99856.28;5090426;28;20036;-77
2021/03/30 10:46:40;;;;;;;15.52;8.75;;;;;;;18.03;48.22;99855.69;5090404;28;20028;-78
2021/03/30 10:49:07;;;;;;;15.10;8.73;;;;;;;18.03;48.75;99849.28;5090657;28;20102;-79
2021/03/30 10:51:34;;;;;;;17.98;8.85;;;;;;;17.98;47.96;99844.66;5090492;28;20032;-78
2021/03/30 10:54:03;;;;;;;43.10;23.25;;;;;;;17.96;48.57;99849.69;5091628;28;20024;-78
2021/03/30 10:56:30;;;;;;;16.02;8.68;;;;;;;17.97;47.96;99834.69;5092316;28;20136;-79
2021/03/30 10:58:55;;;;;;;15.00;8.10;;;;;;;17.94;47.71;99843.63;5092177;28;20031;-78
2021/03/30 11:01:21;;;;;;;13.75;8.60;;;;;;;17.98;47.80;99847.44;5092373;28;20028;-78
2021/03/30 11:03:46;;;;;;;11.05;7.88;;;;;;;18.04;47.42;99851.75;5092127;28;20498;-78
2021/03/30 11:06:11;;;;;;;11.93;7.05;;;;;;;18.12;47.56;99841.88;5092368;28;20439;-78
2021/03/30 11:08:37;;;;;;;11.27;7.20;;;;;;;18.21;47.05;99847.47;5092647;28;20020;-78
2021/03/30 11:11:02;;;;;;;17.27;8.75;;;;;;;18.29;47.31;99842.03;5092291;28;20485;-78
2021/03/30 11:13:28;;;;;;;11.50;7.10;;;;;;;18.33;47.16;99841.41;5092797;28;20053;-78
2021/03/30 11:15:53;;;;;;;11.68;6.55;;;;;;;18.38;46.51;99838.47;5096241;28;20027;-78
2021/03/30 11:18:18;;;;;;;18.05;10.77;;;;;;;18.44;46.61;99840.84;5096272;28;20065;-78
2021/03/30 11:20:44;;;;;;;15.40;9.15;;;;;;;18.56;45.81;99836.66;5095980;28;20040;-78
2021/03/30 11:23:09;;;;;;;16.42;8.90;;;;;;;18.63;46.72;99825.91;5095856;28;20486;-79
2021/03/30 11:25:38;;;;;;;22.65;12.40;;;;;;;18.73;46.43;99828.44;5096060;28;20020;-79
2021/03/30 11:28:08;;;;;;;16.75;8.23;;;;;;;18.85;46.79;99827.03;5095897;28;20099;-78
2021/03/30 11:31:28;;;;;;;12.60;8.43;;;;;;;18.95;46.53;99829.53;5095935;28;20028;-77
2021/03/30 11:33:32;;;;;;;13.82;7.55;;;;;;;18.95;45.31;99829.53;5088238;28;20047;-79
2021/03/30 11:36:02;;;;;;;18.00;10.48;;;;;;;18.94;45.38;99825.13;5095418;28;20028;-79
2021/03/30 11:38:28;;;;;;;18.00;8.65;;;;;;;19.08;45.41;99818.66;5095682;28;20020;-78
2021/03/30 11:40:53;;;;;;;13.07;7.72;;;;;;;19.18;44.82;99818.38;5095969;28;20023;-79